sensor_id;sensor_type;location;lat;lon;timestamp;temperature;humidity
52415;DHT22;38340;52.964;6.086;2023-04-25T00:01:02;5.60;99.90
52415;DHT22;38340;52.964;6.086;2023-04-25T00:03:29;5.50;99.90
52415;DHT22;38340;52.964;6.086;2023-04-25T00:05:55;5.50;99.90
52415;DHT22;38340;52.964;6.086;2023-04-25T00:08:22;5.50;99.90
52415;DHT22;38340;52.964;6.086;2023-04-25T00:10:48;5.40;99.90
52415;DHT22;38340;52.964;6.086;2023-04-25T00:13:14;5.40;99.90
52415;DHT22;38340;52.964;6.086;2023-04-25T00:15:42;5.30;99.90
52415;DHT22;38340;52.964;6.086;2023-04-25T00:18:08;5.20;99.90
52415;DHT22;38340;52.964;6.086;2023-04-25T00:20:35;5.20;99.90
52415;DHT22;38340;52.964;6.086;2023-04-25T00:23:01;5.20;99.90
52415;DHT22;38340;52.964;6.086;2023-04-25T00:25:26;5.10;99.90
52415;DHT22;38340;52.964;6.086;2023-04-25T00:27:52;5.10;99.90
52415;DHT22;38340;52.964;6.086;2023-04-25T00:30:18;5.10;99.90
52415;DHT22;38340;52.964;6.086;2023-04-25T00:32:44;5.10;99.90
52415;DHT22;38340;52.964;6.086;2023-04-25T00:35:10;5.10;99.90
52415;DHT22;38340;52.964;6.086;2023-04-25T00:37:35;5.00;99.90
52415;DHT22;38340;52.964;6.086;2023-04-25T00:40:01;5.00;99.90
52415;DHT22;38340;52.964;6.086;2023-04-25T00:42:28;5.00;99.90
52415;DHT22;38340;52.964;6.086;2023-04-25T00:44:55;5.10;99.90
52415;DHT22;38340;52.964;6.086;2023-04-25T00:47:21;5.10;99.90
52415;DHT22;38340;52.964;6.086;2023-04-25T00:49:48;5.10;99.90
52415;DHT22;38340;52.964;6.086;2023-04-25T00:52:13;5.20;99.90
52415;DHT22;38340;52.964;6.086;2023-04-25T00:54:39;5.20;99.90
52415;DHT22;38340;52.964;6.086;2023-04-25T00:57:05;5.30;99.90
52415;DHT22;38340;52.964;6.086;2023-04-25T00:59:31;5.30;99.90
52415;DHT22;38340;52.964;6.086;2023-04-25T01:01:57;5.40;99.90
52415;DHT22;38340;52.964;6.086;2023-04-25T01:04:23;5.40;99.90
52415;DHT22;38340;52.964;6.086;2023-04-25T01:06:49;5.40;99.90
52415;DHT22;38340;52.964;6.086;2023-04-25T01:09:15;5.40;99.90
52415;DHT22;38340;52.964;6.086;2023-04-25T01:11:41;5.40;99.90
52415;DHT22;38340;52.964;6.086;2023-04-25T01:14:06;5.40;99.90
52415;DHT22;38340;52.964;6.086;2023-04-25T01:16:32;5.40;99.90
52415;DHT22;38340;52.964;6.086;2023-04-25T01:18:59;5.40;99.90
52415;DHT22;38340;52.964;6.086;2023-04-25T01:21:25;5.40;99.90
52415;DHT22;38340;52.964;6.086;2023-04-25T01:23:54;5.40;99.90
52415;DHT22;38340;52.964;6.086;2023-04-25T01:26:20;5.40;99.90
52415;DHT22;38340;52.964;6.086;2023-04-25T01:28:47;5.40;99.90
52415;DHT22;38340;52.964;6.086;2023-04-25T01:31:14;5.40;99.90
52415;DHT22;38340;52.964;6.086;2023-04-25T01:33:40;5.40;99.90
52415;DHT22;38340;52.964;6.086;2023-04-25T01:36:06;5.40;99.90
52415;DHT22;38340;52.964;6.086;2023-04-25T01:38:32;5.40;99.90
52415;DHT22;38340;52.964;6.086;2023-04-25T01:40:58;5.30;99.90
52415;DHT22;38340;52.964;6.086;2023-04-25T01:43:24;5.30;99.90
52415;DHT22;38340;52.964;6.086;2023-04-25T01:45:50;5.40;99.90
52415;DHT22;38340;52.964;6.086;2023-04-25T01:48:17;5.40;99.90
52415;DHT22;38340;52.964;6.086;2023-04-25T01:50:43;5.40;99.90
52415;DHT22;38340;52.964;6.086;2023-04-25T01:53:09;5.40;99.90
52415;DHT22;38340;52.964;6.086;2023-04-25T01:55:36;5.50;99.90
52415;DHT22;38340;52.964;6.086;2023-04-25T01:58:05;5.40;99.90
52415;DHT22;38340;52.964;6.086;2023-04-25T02:00:35;5.40;99.90
52415;DHT22;38340;52.964;6.086;2023-04-25T02:03:04;5.40;99.90
52415;DHT22;38340;52.964;6.086;2023-04-25T02:05:35;5.40;99.90
52415;DHT22;38340;52.964;6.086;2023-04-25T02:08:01;5.40;99.90
52415;DHT22;38340;52.964;6.086;2023-04-25T02:10:26;5.40;99.90
52415;DHT22;38340;52.964;6.086;2023-04-25T02:12:52;5.40;99.90
52415;DHT22;38340;52.964;6.086;2023-04-25T02:15:18;5.40;99.90
52415;DHT22;38340;52.964;6.086;2023-04-25T02:17:43;5.30;99.90
52415;DHT22;38340;52.964;6.086;2023-04-25T02:20:11;5.30;99.90
52415;DHT22;38340;52.964;6.086;2023-04-25T02:22:36;5.20;99.90
52415;DHT22;38340;52.964;6.086;2023-04-25T02:25:02;5.20;99.90
52415;DHT22;38340;52.964;6.086;2023-04-25T02:27:30;5.20;99.90
52415;DHT22;38340;52.964;6.086;2023-04-25T02:29:56;5.10;99.90
52415;DHT22;38340;52.964;6.086;2023-04-25T02:32:21;5.10;99.90
52415;DHT22;38340;52.964;6.086;2023-04-25T02:34:47;5.10;99.90
52415;DHT22;38340;52.964;6.086;2023-04-25T02:37:13;5.10;99.90
52415;DHT22;38340;52.964;6.086;2023-04-25T02:39:39;5.10;99.90
52415;DHT22;38340;52.964;6.086;2023-04-25T02:42:05;5.10;99.90
52415;DHT22;38340;52.964;6.086;2023-04-25T02:44:31;5.00;99.90
52415;DHT22;38340;52.964;6.086;2023-04-25T02:46:56;5.00;99.90
52415;DHT22;38340;52.964;6.086;2023-04-25T02:49:22;5.00;99.90
52415;DHT22;38340;52.964;6.086;2023-04-25T02:51:48;5.00;99.90
52415;DHT22;38340;52.964;6.086;2023-04-25T02:54:13;5.00;99.90
52415;DHT22;38340;52.964;6.086;2023-04-25T02:56:39;5.00;99.90
52415;DHT22;38340;52.964;6.086;2023-04-25T02:59:05;5.00;99.90
52415;DHT22;38340;52.964;6.086;2023-04-25T03:01:30;4.90;99.90
52415;DHT22;38340;52.964;6.086;2023-04-25T03:03:56;4.90;99.90
52415;DHT22;38340;52.964;6.086;2023-04-25T03:06:22;4.90;99.90
52415;DHT22;38340;52.964;6.086;2023-04-25T03:08:47;4.90;99.90
52415;DHT22;38340;52.964;6.086;2023-04-25T03:11:13;4.90;99.90
52415;DHT22;38340;52.964;6.086;2023-04-25T03:13:38;4.90;99.90
52415;DHT22;38340;52.964;6.086;2023-04-25T03:16:04;5.00;99.90
52415;DHT22;38340;52.964;6.086;2023-04-25T03:18:30;5.00;99.90
52415;DHT22;38340;52.964;6.086;2023-04-25T03:20:56;4.90;99.90
52415;DHT22;38340;52.964;6.086;2023-04-25T03:23:22;4.80;99.90
52415;DHT22;38340;52.964;6.086;2023-04-25T03:25:47;4.80;99.90
52415;DHT22;38340;52.964;6.086;2023-04-25T03:28:14;4.80;99.90
52415;DHT22;38340;52.964;6.086;2023-04-25T03:30:39;4.70;99.90
52415;DHT22;38340;52.964;6.086;2023-04-25T03:33:05;4.60;99.90
52415;DHT22;38340;52.964;6.086;2023-04-25T03:35:31;4.50;99.90
52415;DHT22;38340;52.964;6.086;2023-04-25T03:37:56;4.50;99.90
52415;DHT22;38340;52.964;6.086;2023-04-25T03:40:22;4.60;99.90
52415;DHT22;38340;52.964;6.086;2023-04-25T03:42:48;4.60;99.90
52415;DHT22;38340;52.964;6.086;2023-04-25T03:45:13;4.60;99.90
52415;DHT22;38340;52.964;6.086;2023-04-25T03:47:39;4.60;99.90
52415;DHT22;38340;52.964;6.086;2023-04-25T03:50:05;4.60;99.90
52415;DHT22;38340;52.964;6.086;2023-04-25T03:52:31;4.60;99.90
52415;DHT22;38340;52.964;6.086;2023-04-25T03:54:57;4.60;99.90
52415;DHT22;38340;52.964;6.086;2023-04-25T03:57:22;4.60;99.90
52415;DHT22;38340;52.964;6.086;2023-04-25T03:59:48;4.70;99.90
52415;DHT22;38340;52.964;6.086;2023-04-25T04:02:14;4.70;99.90
52415;DHT22;38340;52.964;6.086;2023-04-25T04:04:39;4.70;99.90
52415;DHT22;38340;52.964;6.086;2023-04-25T04:07:05;4.70;99.90
52415;DHT22;38340;52.964;6.086;2023-04-25T04:09:31;4.70;99.90
52415;DHT22;38340;52.964;6.086;2023-04-25T04:11:57;4.80;99.90
52415;DHT22;38340;52.964;6.086;2023-04-25T04:14:22;4.80;99.90
52415;DHT22;38340;52.964;6.086;2023-04-25T04:16:48;4.80;99.90
52415;DHT22;38340;52.964;6.086;2023-04-25T04:19:14;4.80;99.90
52415;DHT22;38340;52.964;6.086;2023-04-25T04:21:40;4.80;99.90
52415;DHT22;38340;52.964;6.086;2023-04-25T04:24:05;4.70;99.90
52415;DHT22;38340;52.964;6.086;2023-04-25T04:26:32;4.80;99.90
52415;DHT22;38340;52.964;6.086;2023-04-25T04:28:58;4.80;99.90
52415;DHT22;38340;52.964;6.086;2023-04-25T04:31:24;4.80;99.90
52415;DHT22;38340;52.964;6.086;2023-04-25T04:33:50;4.70;99.90
52415;DHT22;38340;52.964;6.086;2023-04-25T04:36:16;4.70;99.90
52415;DHT22;38340;52.964;6.086;2023-04-25T04:38:45;4.70;99.90
52415;DHT22;38340;52.964;6.086;2023-04-25T04:41:11;4.70;99.90
52415;DHT22;38340;52.964;6.086;2023-04-25T04:43:36;4.70;99.90
52415;DHT22;38340;52.964;6.086;2023-04-25T04:46:03;4.60;99.90
52415;DHT22;38340;52.964;6.086;2023-04-25T04:48:32;4.70;99.90
52415;DHT22;38340;52.964;6.086;2023-04-25T04:51:00;4.60;99.90
52415;DHT22;38340;52.964;6.086;2023-04-25T04:53:27;4.60;99.90
52415;DHT22;38340;52.964;6.086;2023-04-25T04:55:52;4.50;99.90
52415;DHT22;38340;52.964;6.086;2023-04-25T04:58:18;4.70;99.90
52415;DHT22;38340;52.964;6.086;2023-04-25T05:00:45;4.80;99.90
52415;DHT22;38340;52.964;6.086;2023-04-25T05:03:10;4.90;99.90
52415;DHT22;38340;52.964;6.086;2023-04-25T05:05:37;5.00;99.90
52415;DHT22;38340;52.964;6.086;2023-04-25T05:08:05;5.20;99.90
52415;DHT22;38340;52.964;6.086;2023-04-25T05:10:31;5.10;99.90
52415;DHT22;38340;52.964;6.086;2023-04-25T05:12:57;5.00;99.90
52415;DHT22;38340;52.964;6.086;2023-04-25T05:15:22;5.00;99.90
52415;DHT22;38340;52.964;6.086;2023-04-25T05:17:48;5.00;99.90
52415;DHT22;38340;52.964;6.086;2023-04-25T05:20:14;4.90;99.90
52415;DHT22;38340;52.964;6.086;2023-04-25T05:22:40;4.90;99.90
52415;DHT22;38340;52.964;6.086;2023-04-25T05:25:08;4.90;99.90
52415;DHT22;38340;52.964;6.086;2023-04-25T05:27:34;4.90;99.90
52415;DHT22;38340;52.964;6.086;2023-04-25T05:29:59;4.90;99.90
52415;DHT22;38340;52.964;6.086;2023-04-25T05:32:26;5.00;99.90
52415;DHT22;38340;52.964;6.086;2023-04-25T05:34:52;5.00;99.90
52415;DHT22;38340;52.964;6.086;2023-04-25T05:37:17;5.00;99.90
52415;DHT22;38340;52.964;6.086;2023-04-25T05:39:43;5.10;99.90
52415;DHT22;38340;52.964;6.086;2023-04-25T05:42:09;5.10;99.90
52415;DHT22;38340;52.964;6.086;2023-04-25T05:44:35;5.20;99.90
52415;DHT22;38340;52.964;6.086;2023-04-25T05:47:00;5.20;99.90
52415;DHT22;38340;52.964;6.086;2023-04-25T05:49:26;5.20;99.90
52415;DHT22;38340;52.964;6.086;2023-04-25T05:51:52;5.30;99.90
52415;DHT22;38340;52.964;6.086;2023-04-25T05:54:17;5.20;99.90
52415;DHT22;38340;52.964;6.086;2023-04-25T05:56:43;5.20;99.90
52415;DHT22;38340;52.964;6.086;2023-04-25T05:59:09;5.10;99.90
52415;DHT22;38340;52.964;6.086;2023-04-25T06:01:34;5.10;99.90
52415;DHT22;38340;52.964;6.086;2023-04-25T06:04:00;5.20;99.90
52415;DHT22;38340;52.964;6.086;2023-04-25T06:06:26;5.40;99.90
52415;DHT22;38340;52.964;6.086;2023-04-25T06:08:53;5.50;99.90
52415;DHT22;38340;52.964;6.086;2023-04-25T06:11:19;5.60;99.90
52415;DHT22;38340;52.964;6.086;2023-04-25T06:13:45;5.80;99.90
52415;DHT22;38340;52.964;6.086;2023-04-25T06:16:11;6.10;99.90
52415;DHT22;38340;52.964;6.086;2023-04-25T06:18:37;6.30;1.00
52415;DHT22;38340;52.964;6.086;2023-04-25T06:21:03;6.40;1.00
52415;DHT22;38340;52.964;6.086;2023-04-25T06:23:28;6.30;1.00
52415;DHT22;38340;52.964;6.086;2023-04-25T06:25:54;6.20;99.90
52415;DHT22;38340;52.964;6.086;2023-04-25T06:28:20;6.10;1.00
52415;DHT22;38340;52.964;6.086;2023-04-25T06:30:47;6.10;1.00
52415;DHT22;38340;52.964;6.086;2023-04-25T06:33:13;6.00;1.00
52415;DHT22;38340;52.964;6.086;2023-04-25T06:35:38;5.90;99.90
52415;DHT22;38340;52.964;6.086;2023-04-25T06:38:04;5.90;25.10
52415;DHT22;38340;52.964;6.086;2023-04-25T06:40:30;5.90;99.90
52415;DHT22;38340;52.964;6.086;2023-04-25T06:42:56;5.70;18.90
52415;DHT22;38340;52.964;6.086;2023-04-25T06:45:21;5.70;99.90
52415;DHT22;38340;52.964;6.086;2023-04-25T06:47:47;5.70;96.10
52415;DHT22;38340;52.964;6.086;2023-04-25T06:50:12;5.70;99.90
52415;DHT22;38340;52.964;6.086;2023-04-25T06:52:38;5.80;99.90
52415;DHT22;38340;52.964;6.086;2023-04-25T06:55:04;5.90;1.00
52415;DHT22;38340;52.964;6.086;2023-04-25T06:57:30;6.10;95.40
52415;DHT22;38340;52.964;6.086;2023-04-25T06:59:56;6.20;1.00
52415;DHT22;38340;52.964;6.086;2023-04-25T07:02:22;6.50;47.70
52415;DHT22;38340;52.964;6.086;2023-04-25T07:04:47;6.80;1.00
52415;DHT22;38340;52.964;6.086;2023-04-25T07:07:13;6.70;9.50
52415;DHT22;38340;52.964;6.086;2023-04-25T07:09:39;6.90;1.00
52415;DHT22;38340;52.964;6.086;2023-04-25T07:12:05;6.80;10.80
52415;DHT22;38340;52.964;6.086;2023-04-25T07:14:31;6.80;99.90
52415;DHT22;38340;52.964;6.086;2023-04-25T07:16:56;7.00;99.90
52415;DHT22;38340;52.964;6.086;2023-04-25T07:19:23;7.00;99.90
52415;DHT22;38340;52.964;6.086;2023-04-25T07:21:52;6.80;99.90
52415;DHT22;38340;52.964;6.086;2023-04-25T07:24:17;6.80;20.80
52415;DHT22;38340;52.964;6.086;2023-04-25T07:26:43;6.80;74.80
52415;DHT22;38340;52.964;6.086;2023-04-25T07:29:09;6.80;99.90
52415;DHT22;38340;52.964;6.086;2023-04-25T07:31:35;6.80;99.90
52415;DHT22;38340;52.964;6.086;2023-04-25T07:34:01;5.60;99.90
52415;DHT22;38340;52.964;6.086;2023-04-25T07:36:26;4.60;99.90
52415;DHT22;38340;52.964;6.086;2023-04-25T07:38:52;4.40;99.90
52415;DHT22;38340;52.964;6.086;2023-04-25T07:41:18;4.50;99.90
52415;DHT22;38340;52.964;6.086;2023-04-25T07:43:43;4.60;99.90
52415;DHT22;38340;52.964;6.086;2023-04-25T07:46:09;4.70;99.90
52415;DHT22;38340;52.964;6.086;2023-04-25T07:48:35;4.90;99.90
52415;DHT22;38340;52.964;6.086;2023-04-25T07:51:01;5.20;99.90
52415;DHT22;38340;52.964;6.086;2023-04-25T07:53:26;5.30;99.90
52415;DHT22;38340;52.964;6.086;2023-04-25T07:55:52;5.40;99.90
52415;DHT22;38340;52.964;6.086;2023-04-25T07:58:18;5.60;99.90
52415;DHT22;38340;52.964;6.086;2023-04-25T08:00:47;5.80;99.90
52415;DHT22;38340;52.964;6.086;2023-04-25T08:03:13;6.10;99.90
52415;DHT22;38340;52.964;6.086;2023-04-25T08:05:39;6.20;99.90
52415;DHT22;38340;52.964;6.086;2023-04-25T08:08:05;6.30;99.90
52415;DHT22;38340;52.964;6.086;2023-04-25T08:10:32;6.50;99.90
52415;DHT22;38340;52.964;6.086;2023-04-25T08:12:59;6.70;99.90
52415;DHT22;38340;52.964;6.086;2023-04-25T08:15:25;6.70;99.90
52415;DHT22;38340;52.964;6.086;2023-04-25T08:17:50;6.70;99.90
52415;DHT22;38340;52.964;6.086;2023-04-25T08:20:16;6.80;99.90
52415;DHT22;38340;52.964;6.086;2023-04-25T08:22:42;7.00;99.90
52415;DHT22;38340;52.964;6.086;2023-04-25T08:25:08;7.00;36.50
52415;DHT22;38340;52.964;6.086;2023-04-25T08:27:34;7.10;1.00
52415;DHT22;38340;52.964;6.086;2023-04-25T08:30:00;7.60;99.90
52415;DHT22;38340;52.964;6.086;2023-04-25T08:32:27;7.80;19.20
52415;DHT22;38340;52.964;6.086;2023-04-25T08:34:52;7.80;99.90
52415;DHT22;38340;52.964;6.086;2023-04-25T08:37:21;7.80;1.00
52415;DHT22;38340;52.964;6.086;2023-04-25T08:39:47;7.90;1.00
52415;DHT22;38340;52.964;6.086;2023-04-25T08:42:15;7.60;99.90
52415;DHT22;38340;52.964;6.086;2023-04-25T08:44:40;7.50;1.00
52415;DHT22;38340;52.964;6.086;2023-04-25T08:47:06;7.70;99.90
52415;DHT22;38340;52.964;6.086;2023-04-25T08:49:33;7.60;99.90
52415;DHT22;38340;52.964;6.086;2023-04-25T08:52:04;7.70;99.90
52415;DHT22;38340;52.964;6.086;2023-04-25T08:54:33;7.90;99.90
52415;DHT22;38340;52.964;6.086;2023-04-25T08:57:01;8.00;1.00
52415;DHT22;38340;52.964;6.086;2023-04-25T08:59:29;8.20;99.90
52415;DHT22;38340;52.964;6.086;2023-04-25T09:01:55;8.50;99.90
52415;DHT22;38340;52.964;6.086;2023-04-25T09:04:21;8.50;8.60
52415;DHT22;38340;52.964;6.086;2023-04-25T09:06:47;8.90;44.80
52415;DHT22;38340;52.964;6.086;2023-04-25T09:09:13;8.90;1.00
52415;DHT22;38340;52.964;6.086;2023-04-25T09:11:39;8.60;99.90
52415;DHT22;38340;52.964;6.086;2023-04-25T09:14:19;8.80;99.90
52415;DHT22;38340;52.964;6.086;2023-04-25T09:19:29;8.80;99.90
52415;DHT22;38340;52.964;6.086;2023-04-25T09:21:56;8.80;73.40
52415;DHT22;38340;52.964;6.086;2023-04-25T09:24:33;8.20;99.90
52415;DHT22;38340;52.964;6.086;2023-04-25T09:26:59;8.00;99.90
52415;DHT22;38340;52.964;6.086;2023-04-25T09:29:56;7.60;99.90
52415;DHT22;38340;52.964;6.086;2023-04-25T09:32:23;7.30;99.90
52415;DHT22;38340;52.964;6.086;2023-04-25T09:34:51;7.10;99.90
52415;DHT22;38340;52.964;6.086;2023-04-25T09:39:48;7.10;1.00
52415;DHT22;38340;52.964;6.086;2023-04-25T09:42:15;7.40;1.00
52415;DHT22;38340;52.964;6.086;2023-04-25T09:44:43;7.90;1.00
52415;DHT22;38340;52.964;6.086;2023-04-25T09:47:11;8.30;99.90
52415;DHT22;38340;52.964;6.086;2023-04-25T09:49:40;8.40;99.90
52415;DHT22;38340;52.964;6.086;2023-04-25T09:52:08;8.40;99.90
52415;DHT22;38340;52.964;6.086;2023-04-25T09:54:34;7.50;1.00
52415;DHT22;38340;52.964;6.086;2023-04-25T09:57:10;7.30;99.90
52415;DHT22;38340;52.964;6.086;2023-04-25T09:59:39;6.90;1.00
52415;DHT22;38340;52.964;6.086;2023-04-25T10:02:08;6.80;99.90
52415;DHT22;38340;52.964;6.086;2023-04-25T10:04:35;7.00;99.90
52415;DHT22;38340;52.964;6.086;2023-04-25T10:07:04;7.20;99.90
52415;DHT22;38340;52.964;6.086;2023-04-25T10:09:32;7.40;99.90
52415;DHT22;38340;52.964;6.086;2023-04-25T10:11:59;7.50;99.90
52415;DHT22;38340;52.964;6.086;2023-04-25T10:14:26;7.60;99.90
52415;DHT22;38340;52.964;6.086;2023-04-25T10:16:53;7.70;1.00
52415;DHT22;38340;52.964;6.086;2023-04-25T10:19:22;7.90;99.90
52415;DHT22;38340;52.964;6.086;2023-04-25T10:22:08;7.80;99.90
52415;DHT22;38340;52.964;6.086;2023-04-25T10:24:37;7.80;99.90
52415;DHT22;38340;52.964;6.086;2023-04-25T10:27:04;8.00;99.90
52415;DHT22;38340;52.964;6.086;2023-04-25T10:29:31;8.20;99.90
52415;DHT22;38340;52.964;6.086;2023-04-25T10:31:57;8.20;1.00
52415;DHT22;38340;52.964;6.086;2023-04-25T10:34:42;8.20;33.90
52415;DHT22;38340;52.964;6.086;2023-04-25T10:37:09;8.20;1.00
52415;DHT22;38340;52.964;6.086;2023-04-25T10:39:35;8.30;99.90
52415;DHT22;38340;52.964;6.086;2023-04-25T10:42:03;8.30;99.90
52415;DHT22;38340;52.964;6.086;2023-04-25T10:44:29;8.50;1.00
52415;DHT22;38340;52.964;6.086;2023-04-25T10:46:56;8.60;99.90
52415;DHT22;38340;52.964;6.086;2023-04-25T10:52:24;8.60;58.20
52415;DHT22;38340;52.964;6.086;2023-04-25T10:54:55;8.70;1.00
52415;DHT22;38340;52.964;6.086;2023-04-25T11:02:46;8.20;99.90
52415;DHT22;38340;52.964;6.086;2023-04-25T11:05:30;8.20;99.90
52415;DHT22;38340;52.964;6.086;2023-04-25T11:07:57;8.60;99.90
52415;DHT22;38340;52.964;6.086;2023-04-25T11:10:28;8.80;1.00
52415;DHT22;38340;52.964;6.086;2023-04-25T11:12:55;9.10;99.90
52415;DHT22;38340;52.964;6.086;2023-04-25T11:15:20;9.60;1.00
52415;DHT22;38340;52.964;6.086;2023-04-25T11:17:46;9.60;26.40
52415;DHT22;38340;52.964;6.086;2023-04-25T11:20:15;9.10;99.90
52415;DHT22;38340;52.964;6.086;2023-04-25T11:22:41;8.60;1.00
52415;DHT22;38340;52.964;6.086;2023-04-25T11:25:11;7.70;1.00
52415;DHT22;38340;52.964;6.086;2023-04-25T11:27:52;7.30;1.00
52415;DHT22;38340;52.964;6.086;2023-04-25T11:30:19;6.80;99.90
52415;DHT22;38340;52.964;6.086;2023-04-25T11:32:46;6.60;1.00
52415;DHT22;38340;52.964;6.086;2023-04-25T11:35:12;6.50;1.00
52415;DHT22;38340;52.964;6.086;2023-04-25T11:37:42;6.70;99.90
52415;DHT22;38340;52.964;6.086;2023-04-25T11:40:09;6.90;99.90
52415;DHT22;38340;52.964;6.086;2023-04-25T11:42:37;7.10;1.00
52415;DHT22;38340;52.964;6.086;2023-04-25T11:45:04;7.50;1.00
52415;DHT22;38340;52.964;6.086;2023-04-25T11:47:31;7.90;99.90
52415;DHT22;38340;52.964;6.086;2023-04-25T11:50:04;8.40;99.90
52415;DHT22;38340;52.964;6.086;2023-04-25T11:52:38;8.50;99.90
52415;DHT22;38340;52.964;6.086;2023-04-25T11:55:14;8.20;99.90
52415;DHT22;38340;52.964;6.086;2023-04-25T11:57:41;8.20;66.60
52415;DHT22;38340;52.964;6.086;2023-04-25T12:00:15;8.20;9.90
52415;DHT22;38340;52.964;6.086;2023-04-25T12:02:48;8.20;85.40
52415;DHT22;38340;52.964;6.086;2023-04-25T12:05:16;8.70;1.00
52415;DHT22;38340;52.964;6.086;2023-04-25T12:07:42;9.10;99.90
52415;DHT22;38340;52.964;6.086;2023-04-25T12:10:13;9.30;1.00
52415;DHT22;38340;52.964;6.086;2023-04-25T12:12:44;9.60;99.90
52415;DHT22;38340;52.964;6.086;2023-04-25T12:15:15;9.70;99.90
52415;DHT22;38340;52.964;6.086;2023-04-25T12:17:42;9.60;99.90
52415;DHT22;38340;52.964;6.086;2023-04-25T12:20:17;9.30;1.00
52415;DHT22;38340;52.964;6.086;2023-04-25T12:22:45;8.40;1.00
52415;DHT22;38340;52.964;6.086;2023-04-25T12:28:21;7.00;99.90
52415;DHT22;38340;52.964;6.086;2023-04-25T12:31:07;6.90;99.90
52415;DHT22;38340;52.964;6.086;2023-04-25T12:33:37;6.80;99.90
52415;DHT22;38340;52.964;6.086;2023-04-25T12:36:06;7.10;99.90
52415;DHT22;38340;52.964;6.086;2023-04-25T12:38:40;7.50;99.90
52415;DHT22;38340;52.964;6.086;2023-04-25T12:41:07;8.00;99.90
52415;DHT22;38340;52.964;6.086;2023-04-25T12:43:32;8.10;99.90
52415;DHT22;38340;52.964;6.086;2023-04-25T12:45:58;8.00;99.90
52415;DHT22;38340;52.964;6.086;2023-04-25T12:48:24;7.90;99.90
52415;DHT22;38340;52.964;6.086;2023-04-25T12:50:50;7.90;99.90
52415;DHT22;38340;52.964;6.086;2023-04-25T12:53:17;8.50;99.90
52415;DHT22;38340;52.964;6.086;2023-04-25T12:55:43;8.80;99.90
52415;DHT22;38340;52.964;6.086;2023-04-25T12:58:11;8.60;1.00
52415;DHT22;38340;52.964;6.086;2023-04-25T13:00:37;8.30;99.90
52415;DHT22;38340;52.964;6.086;2023-04-25T13:03:03;8.00;1.00
52415;DHT22;38340;52.964;6.086;2023-04-25T13:05:30;8.20;99.90
52415;DHT22;38340;52.964;6.086;2023-04-25T13:07:56;8.50;1.00
52415;DHT22;38340;52.964;6.086;2023-04-25T13:10:22;8.80;99.90
52415;DHT22;38340;52.964;6.086;2023-04-25T13:12:48;8.40;99.90
52415;DHT22;38340;52.964;6.086;2023-04-25T13:15:14;8.40;99.90
52415;DHT22;38340;52.964;6.086;2023-04-25T13:17:41;8.70;1.00
52415;DHT22;38340;52.964;6.086;2023-04-25T13:20:07;9.00;1.00
52415;DHT22;38340;52.964;6.086;2023-04-25T13:22:37;8.80;35.80
52415;DHT22;38340;52.964;6.086;2023-04-25T13:25:04;8.80;99.90
52415;DHT22;38340;52.964;6.086;2023-04-25T13:27:31;8.80;99.90
52415;DHT22;38340;52.964;6.086;2023-04-25T13:29:58;8.50;99.90
52415;DHT22;38340;52.964;6.086;2023-04-25T13:32:24;8.10;1.00
52415;DHT22;38340;52.964;6.086;2023-04-25T13:34:51;8.00;99.90
52415;DHT22;38340;52.964;6.086;2023-04-25T13:37:17;8.20;99.90
52415;DHT22;38340;52.964;6.086;2023-04-25T13:39:43;8.60;99.90
52415;DHT22;38340;52.964;6.086;2023-04-25T13:42:08;8.60;99.90
52415;DHT22;38340;52.964;6.086;2023-04-25T13:44:34;8.70;64.10
52415;DHT22;38340;52.964;6.086;2023-04-25T13:47:00;8.80;1.00
52415;DHT22;38340;52.964;6.086;2023-04-25T13:49:26;8.90;1.00
52415;DHT22;38340;52.964;6.086;2023-04-25T13:51:52;8.70;1.00
52415;DHT22;38340;52.964;6.086;2023-04-25T13:54:17;8.50;1.00
52415;DHT22;38340;52.964;6.086;2023-04-25T13:56:43;8.40;5.50
52415;DHT22;38340;52.964;6.086;2023-04-25T13:59:09;8.20;1.00
52415;DHT22;38340;52.964;6.086;2023-04-25T14:01:35;8.20;99.90
52415;DHT22;38340;52.964;6.086;2023-04-25T14:04:01;8.20;99.90
52415;DHT22;38340;52.964;6.086;2023-04-25T14:06:29;8.20;1.00
52415;DHT22;38340;52.964;6.086;2023-04-25T14:08:55;8.00;1.00
52415;DHT22;38340;52.964;6.086;2023-04-25T14:11:21;7.80;2.60
52415;DHT22;38340;52.964;6.086;2023-04-25T14:13:47;8.10;1.00
52415;DHT22;38340;52.964;6.086;2023-04-25T14:16:15;8.50;99.90
52415;DHT22;38340;52.964;6.086;2023-04-25T14:18:41;8.40;99.90
52415;DHT22;38340;52.964;6.086;2023-04-25T14:21:07;8.50;1.00
52415;DHT22;38340;52.964;6.086;2023-04-25T14:23:32;8.60;1.00
52415;DHT22;38340;52.964;6.086;2023-04-25T14:25:58;8.40;99.90
52415;DHT22;38340;52.964;6.086;2023-04-25T14:28:24;8.50;99.90
52415;DHT22;38340;52.964;6.086;2023-04-25T14:30:49;8.70;1.00
52415;DHT22;38340;52.964;6.086;2023-04-25T14:33:15;8.70;1.00
52415;DHT22;38340;52.964;6.086;2023-04-25T14:35:41;8.80;99.90
52415;DHT22;38340;52.964;6.086;2023-04-25T14:38:07;8.60;99.90
52415;DHT22;38340;52.964;6.086;2023-04-25T14:40:33;8.00;99.90
52415;DHT22;38340;52.964;6.086;2023-04-25T14:42:58;7.70;99.90
52415;DHT22;38340;52.964;6.086;2023-04-25T14:45:24;7.30;81.30
52415;DHT22;38340;52.964;6.086;2023-04-25T14:47:50;7.00;1.00
52415;DHT22;38340;52.964;6.086;2023-04-25T14:50:16;6.70;1.00
52415;DHT22;38340;52.964;6.086;2023-04-25T14:52:41;6.30;5.70
52415;DHT22;38340;52.964;6.086;2023-04-25T14:55:08;5.80;99.90
52415;DHT22;38340;52.964;6.086;2023-04-25T14:57:34;5.60;99.90
52415;DHT22;38340;52.964;6.086;2023-04-25T15:00:00;5.60;99.90
52415;DHT22;38340;52.964;6.086;2023-04-25T15:02:26;5.80;99.90
52415;DHT22;38340;52.964;6.086;2023-04-25T15:04:53;6.10;99.90
52415;DHT22;38340;52.964;6.086;2023-04-25T15:07:20;6.40;99.90
52415;DHT22;38340;52.964;6.086;2023-04-25T15:09:47;6.60;99.90
52415;DHT22;38340;52.964;6.086;2023-04-25T15:12:13;6.80;99.90
52415;DHT22;38340;52.964;6.086;2023-04-25T15:14:39;6.90;99.90
52415;DHT22;38340;52.964;6.086;2023-04-25T15:17:04;6.90;99.90
52415;DHT22;38340;52.964;6.086;2023-04-25T15:19:30;6.60;99.90
52415;DHT22;38340;52.964;6.086;2023-04-25T15:21:56;6.20;99.90
52415;DHT22;38340;52.964;6.086;2023-04-25T15:24:22;6.30;99.90
52415;DHT22;38340;52.964;6.086;2023-04-25T15:26:47;6.40;99.90
52415;DHT22;38340;52.964;6.086;2023-04-25T15:29:13;6.60;1.00
52415;DHT22;38340;52.964;6.086;2023-04-25T15:31:39;6.80;99.90
52415;DHT22;38340;52.964;6.086;2023-04-25T15:34:05;7.00;99.90
52415;DHT22;38340;52.964;6.086;2023-04-25T15:36:31;7.20;99.90
52415;DHT22;38340;52.964;6.086;2023-04-25T15:38:57;7.10;99.90
52415;DHT22;38340;52.964;6.086;2023-04-25T15:41:23;7.10;1.00
52415;DHT22;38340;52.964;6.086;2023-04-25T15:43:52;7.10;99.90
52415;DHT22;38340;52.964;6.086;2023-04-25T15:46:18;7.10;99.90
52415;DHT22;38340;52.964;6.086;2023-04-25T15:48:44;7.10;99.90
52415;DHT22;38340;52.964;6.086;2023-04-25T15:51:10;7.30;1.00
52415;DHT22;38340;52.964;6.086;2023-04-25T15:53:36;7.60;26.50
52415;DHT22;38340;52.964;6.086;2023-04-25T15:56:02;7.90;99.90
52415;DHT22;38340;52.964;6.086;2023-04-25T15:58:29;8.10;99.90
52415;DHT22;38340;52.964;6.086;2023-04-25T16:00:55;8.30;99.90
52415;DHT22;38340;52.964;6.086;2023-04-25T16:03:22;7.90;1.00